Time;durP1;ratioP1;P1;durP2;ratioP2;P2;SDS_P1;SDS_P2;PMS_P1;PMS_P2;Temp;Humidity;BMP_temperature;BMP_pressure;BME280_temperature;BME280_humidity;BME280_pressure;Samples;Min_cycle;Max_cycle;Signal;HPM_P1;HPM_P2
2021/07/17 00:00:44;;;;;;;10.45;5.85;;;;;;;20.21;74.49;99879.94;4960903;29;20112;-83
2021/07/17 00:03:11;;;;;;;7.35;6.20;;;;;;;20.64;73.76;99881.94;4956987;29;20047;-83
2021/07/17 00:05:38;;;;;;;5.72;4.97;;;;;;;20.75;71.47;99874.75;4957611;29;20047;-83
2021/07/17 00:08:05;;;;;;;6.15;4.68;;;;;;;20.68;71.46;99874.53;4957535;29;20495;-80
2021/07/17 00:10:42;;;;;;;11.98;4.43;;;;;;;20.69;70.83;99873.56;4957297;29;20043;-82
2021/07/17 00:13:09;;;;;;;9.77;5.18;;;;;;;20.51;71.10;99870.91;4957262;28;20458;-80
2021/07/17 00:15:37;;;;;;;5.32;3.97;;;;;;;20.47;71.29;99866.06;4962473;29;20047;-79
2021/07/17 00:18:04;;;;;;;6.15;4.50;;;;;;;20.48;71.21;99865.06;4957039;29;20039;-80
2021/07/17 00:20:32;;;;;;;6.07;4.65;;;;;;;20.30;71.51;99865.00;4956801;29;20055;-81
2021/07/17 00:22:59;;;;;;;5.30;4.22;;;;;;;20.44;70.45;99858.34;4957466;29;20039;-79
2021/07/17 00:25:26;;;;;;;5.15;4.18;;;;;;;20.49;70.32;99848.19;4956933;29;20051;-81
2021/07/17 00:27:54;;;;;;;5.35;4.85;;;;;;;20.69;69.09;99862.97;4957413;29;20491;-82
2021/07/17 00:30:21;;;;;;;4.80;4.40;;;;;;;20.58;69.16;99860.53;4957080;29;20048;-81
2021/07/17 00:32:48;;;;;;;4.75;4.20;;;;;;;20.80;68.26;99862.72;4957097;29;20053;-79
2021/07/17 00:35:15;;;;;;;5.10;4.30;;;;;;;20.60;68.64;99856.75;4940074;29;20039;-80
2021/07/17 00:37:42;;;;;;;4.57;4.13;;;;;;;20.62;68.71;99867.19;4959854;29;20122;-80
2021/07/17 00:40:11;;;;;;;4.45;4.05;;;;;;;20.55;68.95;99860.81;4957562;29;20050;-81
2021/07/17 00:42:40;;;;;;;5.55;4.95;;;;;;;20.56;68.73;99859.84;4964534;28;20047;-81
2021/07/17 00:45:09;;;;;;;6.28;4.93;;;;;;;20.71;68.78;99865.44;4940764;29;20047;-80
2021/07/17 00:47:37;;;;;;;5.30;4.22;;;;;;;20.80;68.28;99859.25;4956324;29;20074;-81
2021/07/17 00:50:05;;;;;;;4.53;3.75;;;;;;;20.66;68.26;99853.47;4957394;29;20126;-82
2021/07/17 00:52:34;;;;;;;6.00;4.35;;;;;;;20.59;68.39;99856.91;4958279;29;20055;-82
2021/07/17 00:55:07;;;;;;;5.13;4.22;;;;;;;20.78;67.44;99856.75;4958039;29;20062;-81
2021/07/17 00:57:35;;;;;;;8.60;5.30;;;;;;;20.71;67.70;99847.75;4939532;29;20142;-81
2021/07/17 01:00:12;;;;;;;4.47;4.07;;;;;;;20.65;67.86;99841.22;4939978;29;20044;-81
2021/07/17 01:02:45;;;;;;;5.93;4.22;;;;;;;20.70;67.45;99845.25;4957198;29;20407;-80
2021/07/17 01:05:15;;;;;;;4.82;4.40;;;;;;;20.63;67.74;99843.22;4956579;29;20049;-81
2021/07/17 01:07:44;;;;;;;5.90;3.88;;;;;;;20.66;67.31;99842.06;4956165;29;20401;-81
2021/07/17 01:10:11;;;;;;;5.75;4.28;;;;;;;20.77;66.85;99844.47;4956453;29;20074;-81
2021/07/17 01:12:38;;;;;;;4.07;3.60;;;;;;;20.83;66.30;99843.91;4956464;28;20098;-81
2021/07/17 01:15:06;;;;;;;12.88;5.07;;;;;;;20.90;66.21;99839.66;4955217;29;20035;-81
2021/07/17 01:17:34;;;;;;;5.03;3.28;;;;;;;20.80;65.63;99838.06;4956472;29;20075;-81
2021/07/17 01:20:06;;;;;;;6.40;3.90;;;;;;;20.84;65.67;99828.84;4955684;28;20570;-81
2021/07/17 01:22:33;;;;;;;10.57;3.53;;;;;;;20.85;65.17;99828.66;4956492;29;20074;-80
2021/07/17 01:25:00;;;;;;;4.30;3.10;;;;;;;20.88;65.94;99827.56;4955700;29;20085;-81
2021/07/17 01:27:27;;;;;;;3.30;3.10;;;;;;;20.77;65.42;99831.22;4956437;29;20047;-81
2021/07/17 01:29:54;;;;;;;3.85;3.33;;;;;;;20.82;65.14;99828.13;4956202;29;20036;-80
2021/07/17 01:32:21;;;;;;;5.30;2.65;;;;;;;20.86;64.77;99818.91;4955640;29;20050;-81
2021/07/17 01:34:48;;;;;;;3.50;3.20;;;;;;;20.87;64.30;99829.34;4955937;29;20082;-81
2021/07/17 01:37:15;;;;;;;6.20;3.35;;;;;;;20.92;64.14;99828.88;4955159;29;20119;-80
2021/07/17 01:39:42;;;;;;;4.72;2.67;;;;;;;20.90;63.78;99830.88;4956184;29;20126;-80
2021/07/17 01:42:09;;;;;;;2.67;2.47;;;;;;;20.79;63.59;99824.00;4955791;29;20035;-82
2021/07/17 01:44:42;;;;;;;2.47;2.28;;;;;;;20.97;63.09;99825.78;4956174;29;20054;-82
2021/07/17 01:47:11;;;;;;;2.95;2.63;;;;;;;21.00;62.21;99828.13;4955439;29;20071;-82
2021/07/17 01:49:38;;;;;;;4.07;2.55;;;;;;;21.05;61.83;99821.38;4955712;29;20042;-82
2021/07/17 01:52:07;;;;;;;2.63;2.03;;;;;;;21.11;62.06;99817.28;4938254;29;20050;-82
2021/07/17 01:54:35;;;;;;;6.80;3.17;;;;;;;20.99;61.32;99823.81;4955111;28;20131;-81
2021/07/17 01:57:03;;;;;;;2.75;1.95;;;;;;;20.86;61.63;99816.25;4955692;29;20050;-80
2021/07/17 01:59:35;;;;;;;7.25;2.67;;;;;;;21.02;61.37;99816.38;4955378;29;20118;-80
2021/07/17 02:02:03;;;;;;;3.72;3.03;;;;;;;21.01;61.21;99817.38;4955622;29;20057;-80
2021/07/17 02:04:31;;;;;;;3.38;2.15;;;;;;;21.02;61.04;99810.25;4954981;29;20050;-79
2021/07/17 02:06:58;;;;;;;2.15;1.92;;;;;;;21.09;60.29;99806.00;4955320;29;20046;-80
2021/07/17 02:09:26;;;;;;;2.83;1.85;;;;;;;21.01;60.49;99803.28;4954891;29;20051;-79
2021/07/17 02:11:52;;;;;;;2.15;2.00;;;;;;;21.00;60.19;99802.47;4955793;29;20390;-80
2021/07/17 02:14:20;;;;;;;4.45;2.45;;;;;;;21.04;60.16;99797.66;4954885;28;20043;-80
2021/07/17 02:16:47;;;;;;;2.25;2.05;;;;;;;21.09;59.71;99790.94;4937898;29;20097;-79
2021/07/17 02:19:20;;;;;;;2.15;2.00;;;;;;;21.01;59.91;99795.34;4954758;29;20475;-82
2021/07/17 02:21:51;;;;;;;2.17;2.00;;;;;;;21.05;59.62;99800.19;4955088;29;20420;-81
2021/07/17 02:24:19;;;;;;;2.45;2.20;;;;;;;21.00;59.79;99799.00;4955517;29;20111;-81
2021/07/17 02:26:47;;;;;;;4.45;3.00;;;;;;;21.05;59.88;99794.06;4954907;29;20039;-81
2021/07/17 02:29:15;;;;;;;2.00;1.90;;;;;;;21.00;59.82;99799.00;4954995;29;20047;-79
2021/07/17 02:31:43;;;;;;;3.70;2.10;;;;;;;21.05;59.79;99804.66;4954743;29;20495;-79
2021/07/17 02:34:11;;;;;;;3.88;2.55;;;;;;;21.02;59.72;99794.34;4955188;29;20044;-79
2021/07/17 02:36:39;;;;;;;4.55;2.22;;;;;;;21.02;59.88;99794.34;4954659;29;20073;-80
2021/07/17 02:39:07;;;;;;;6.13;2.75;;;;;;;20.93;60.19;99796.97;4955074;29;20122;-80
2021/07/17 02:41:35;;;;;;;6.60;2.80;;;;;;;20.92;60.18;99797.09;4954739;29;20102;-78
2021/07/17 02:44:03;;;;;;;6.78;2.85;;;;;;;20.91;60.14;99792.78;4935608;29;20047;-81
2021/07/17 02:46:30;;;;;;;3.70;2.17;;;;;;;20.95;60.00;99791.50;4953266;29;20150;-80
2021/07/17 02:48:57;;;;;;;3.42;2.60;;;;;;;20.95;60.43;99790.66;4947662;29;20048;-80
2021/07/17 02:51:24;;;;;;;2.22;1.73;;;;;;;20.87;60.84;99779.00;4953601;29;20486;-81
2021/07/17 02:53:51;;;;;;;2.15;2.05;;;;;;;20.90;60.94;99781.34;4954836;29;20045;-79
2021/07/17 02:56:18;;;;;;;2.20;1.90;;;;;;;20.92;60.82;99773.25;4954489;29;20058;-79
2021/07/17 02:58:45;;;;;;;2.95;2.15;;;;;;;20.84;61.08;99775.84;4954536;29;20094;-79
2021/07/17 03:01:12;;;;;;;2.60;2.30;;;;;;;20.78;61.18;99776.47;4954660;29;20075;-79
2021/07/17 03:03:39;;;;;;;2.80;2.05;;;;;;;20.88;60.92;99775.41;4954381;29;20047;-79
2021/07/17 03:06:07;;;;;;;2.95;2.10;;;;;;;20.84;60.73;99774.03;4954482;28;20043;-81
2021/07/17 03:08:34;;;;;;;3.28;2.10;;;;;;;20.92;60.71;99773.25;4940572;29;20457;-81
2021/07/17 03:11:01;;;;;;;2.03;1.83;;;;;;;20.75;60.95;99768.81;4958480;29;20043;-81
2021/07/17 03:13:28;;;;;;;2.75;2.42;;;;;;;20.98;60.47;99769.97;4957614;28;20469;-81
2021/07/17 03:15:55;;;;;;;2.45;2.03;;;;;;;20.76;60.89;99768.66;4958077;29;20065;-81
2021/07/17 03:18:22;;;;;;;2.97;2.17;;;;;;;20.76;60.83;99771.31;4958383;29;20102;-81
2021/07/17 03:20:49;;;;;;;4.97;3.13;;;;;;;20.73;61.04;99773.44;4957997;28;20055;-80
2021/07/17 03:23:17;;;;;;;2.08;1.80;;;;;;;20.82;60.47;99761.91;4958584;29;20134;-79
2021/07/17 03:25:44;;;;;;;2.47;2.13;;;;;;;20.61;61.18;99770.19;4958308;29;20047;-80
2021/07/17 03:28:11;;;;;;;2.35;2.15;;;;;;;20.66;61.00;99771.38;4957933;29;20106;-79
2021/07/17 03:30:38;;;;;;;2.63;2.10;;;;;;;20.81;60.83;99766.38;4958235;29;20126;-79
2021/07/17 03:33:04;;;;;;;2.15;1.95;;;;;;;20.69;61.12;99772.09;4957845;29;20127;-79
2021/07/17 03:35:34;;;;;;;2.72;1.70;;;;;;;20.77;60.80;99761.53;4957926;29;20550;-81
2021/07/17 03:38:01;;;;;;;2.30;1.85;;;;;;;20.71;61.07;99759.50;4957933;29;20118;-79
2021/07/17 03:40:28;;;;;;;3.35;2.00;;;;;;;20.62;61.47;99761.28;4957970;29;20517;-80
2021/07/17 03:42:55;;;;;;;5.43;2.20;;;;;;;20.61;61.74;99754.28;4957571;29;20047;-80
2021/07/17 03:45:22;;;;;;;2.42;1.80;;;;;;;20.65;61.37;99745.91;4957785;29;20089;-80
2021/07/17 03:47:49;;;;;;;3.45;2.53;;;;;;;20.59;61.48;99746.50;4957501;29;20134;-80
2021/07/17 03:50:15;;;;;;;2.55;2.35;;;;;;;20.54;61.43;99748.78;4957881;29;20074;-80
2021/07/17 03:52:42;;;;;;;3.47;2.17;;;;;;;20.62;61.09;99745.38;4957397;29;20045;-80
2021/07/17 03:55:10;;;;;;;3.10;2.10;;;;;;;20.63;60.95;99749.69;4957624;29;20130;-80
2021/07/17 03:57:37;;;;;;;2.70;2.25;;;;;;;20.63;61.11;99755.00;4957253;29;20130;-80
2021/07/17 04:00:05;;;;;;;3.72;2.08;;;;;;;20.55;61.16;99754.91;4957720;29;20066;-80
2021/07/17 04:02:42;;;;;;;2.03;1.83;;;;;;;20.67;60.84;99738.66;4957812;29;20487;-81
2021/07/17 04:05:12;;;;;;;4.72;2.35;;;;;;;20.77;60.33;99749.13;4957190;29;20070;-80
2021/07/17 04:07:40;;;;;;;2.35;2.15;;;;;;;20.62;60.88;99740.09;4957554;29;20047;-79
2021/07/17 04:10:09;;;;;;;2.55;2.35;;;;;;;20.59;60.72;99740.38;4957251;29;20562;-80
2021/07/17 04:12:36;;;;;;;3.63;1.80;;;;;;;20.65;60.40;99737.13;4957342;28;20039;-79
2021/07/17 04:15:05;;;;;;;2.03;1.77;;;;;;;20.68;60.19;99726.22;4957022;29;20126;-78
2021/07/17 04:17:34;;;;;;;2.25;1.88;;;;;;;20.60;60.38;99728.81;4939767;28;20497;-80
2021/07/17 04:20:02;;;;;;;4.28;1.67;;;;;;;20.65;60.42;99718.59;4957175;29;20043;-81
2021/07/17 04:22:28;;;;;;;4.18;2.50;;;;;;;20.73;59.93;99716.00;4954081;29;20114;-81
2021/07/17 04:24:55;;;;;;;2.13;1.92;;;;;;;20.67;60.16;99714.81;4957188;29;20043;-81
2021/07/17 04:27:22;;;;;;;2.28;1.75;;;;;;;20.75;59.84;99711.38;4957084;29;20067;-81
2021/07/17 04:29:50;;;;;;;2.08;1.77;;;;;;;20.79;59.50;99712.75;4956677;29;20047;-81
2021/07/17 04:32:17;;;;;;;3.30;1.80;;;;;;;20.80;59.53;99695.84;4957147;29;20406;-81
2021/07/17 04:34:44;;;;;;;2.53;2.33;;;;;;;20.78;59.66;99702.31;4956780;29;20043;-82
2021/07/17 04:37:16;;;;;;;3.55;2.17;;;;;;;20.77;59.64;99692.66;4956181;29;20558;-81
2021/07/17 04:39:43;;;;;;;1.95;1.60;;;;;;;20.83;59.65;99684.13;4957052;29;20086;-81
2021/07/17 04:42:10;;;;;;;3.22;1.95;;;;;;;20.93;59.21;99687.47;4939446;29;20467;-81
2021/07/17 04:44:37;;;;;;;3.30;2.08;;;;;;;20.75;59.20;99682.25;4956914;29;20043;-81
2021/07/17 04:47:04;;;;;;;2.00;1.80;;;;;;;21.00;58.79;99675.28;4956426;29;20473;-81
2021/07/17 04:49:31;;;;;;;2.67;1.83;;;;;;;20.89;58.99;99676.38;4956200;29;20129;-81
2021/07/17 04:51:59;;;;;;;2.50;2.30;;;;;;;20.86;58.64;99673.19;4948923;29;20047;-81
2021/07/17 04:54:28;;;;;;;4.22;2.28;;;;;;;20.94;58.47;99678.56;4947390;29;20490;-81
2021/07/17 04:56:55;;;;;;;2.03;1.90;;;;;;;21.09;58.11;99684.09;4955957;29;20134;-81
2021/07/17 04:59:22;;;;;;;2.28;2.03;;;;;;;21.00;58.20;99687.69;4955907;29;20406;-81
2021/07/17 05:01:49;;;;;;;3.78;2.20;;;;;;;20.87;58.60;99686.28;4956179;29;20039;-81
2021/07/17 05:04:16;;;;;;;2.90;1.80;;;;;;;21.04;58.33;99683.72;4955748;29;20517;-82
2021/07/17 05:06:43;;;;;;;2.53;1.55;;;;;;;21.01;58.05;99676.94;4955785;29;20525;-80
2021/07/17 05:09:10;;;;;;;2.15;2.00;;;;;;;21.09;57.84;99681.44;4955791;29;20089;-78
2021/07/17 05:11:37;;;;;;;2.25;2.05;;;;;;;21.02;58.06;99675.94;4955702;29;20047;-79
2021/07/17 05:14:04;;;;;;;2.22;1.80;;;;;;;21.09;57.54;99678.78;4949258;28;20094;-82
2021/07/17 05:16:31;;;;;;;5.32;1.80;;;;;;;21.17;57.84;99676.19;4955501;28;20039;-80
2021/07/17 05:18:58;;;;;;;2.08;1.70;;;;;;;21.40;57.18;99677.31;4955348;28;20102;-79
2021/07/17 05:21:25;;;;;;;1.70;1.60;;;;;;;21.50;57.04;99686.97;4949921;28;20059;-81
2021/07/17 05:23:51;;;;;;;2.60;1.60;;;;;;;21.42;57.09;99696.56;4949432;28;20066;-81
2021/07/17 05:26:18;;;;;;;1.75;1.60;;;;;;;21.58;56.77;99697.59;4953866;28;20039;-81
2021/07/17 05:28:45;;;;;;;2.08;1.75;;;;;;;21.50;57.48;99716.97;4955376;28;20148;-79
2021/07/17 05:31:12;;;;;;;2.35;1.67;;;;;;;21.66;56.61;99724.16;4954606;28;20039;-80
2021/07/17 05:33:41;;;;;;;2.83;2.00;;;;;;;21.57;57.13;99722.44;4945105;28;20044;-81
2021/07/17 05:36:08;;;;;;;2.25;2.05;;;;;;;21.45;56.91;99722.72;4954749;28;20039;-81
2021/07/17 05:38:34;;;;;;;5.40;3.00;;;;;;;21.47;56.91;99724.41;4937902;29;20074;-82
2021/07/17 05:41:03;;;;;;;2.30;1.75;;;;;;;21.46;57.03;99720.91;4955808;29;20043;-85
2021/07/17 05:43:30;;;;;;;2.65;1.75;;;;;;;21.63;56.39;99721.81;4962227;28;20050;-86
2021/07/17 05:45:58;;;;;;;3.30;2.97;;;;;;;21.45;57.07;99713.94;4956234;28;20118;-83
2021/07/17 05:48:25;;;;;;;4.25;2.20;;;;;;;21.48;56.79;99718.13;4955740;28;20131;-83
2021/07/17 05:50:52;;;;;;;2.55;2.35;;;;;;;21.49;56.40;99706.53;4938482;29;20070;-85
2021/07/17 05:53:20;;;;;;;4.10;2.60;;;;;;;21.44;56.56;99697.22;4955332;29;20043;-84
2021/07/17 05:55:47;;;;;;;2.35;2.15;;;;;;;21.47;56.06;99706.69;4955560;29;20051;-85
2021/07/17 05:58:14;;;;;;;6.30;2.67;;;;;;;21.50;56.32;99701.03;4955680;29;20055;-83
2021/07/17 06:00:42;;;;;;;2.58;2.15;;;;;;;21.64;55.56;99704.91;4955633;29;20057;-84
2021/07/17 06:03:09;;;;;;;2.58;1.83;;;;;;;21.52;55.69;99707.03;4957571;28;20043;-84
2021/07/17 06:05:39;;;;;;;2.78;1.60;;;;;;;21.53;55.41;99705.22;4952492;28;20406;-84
2021/07/17 06:08:06;;;;;;;3.95;2.15;;;;;;;21.80;55.04;99702.31;4955109;29;20043;-79
2021/07/17 06:10:33;;;;;;;2.50;2.00;;;;;;;21.75;55.06;99706.44;4955332;29;20554;-79
2021/07/17 06:13:00;;;;;;;2.33;1.55;;;;;;;21.77;54.63;99709.75;4955298;28;20124;-83
2021/07/17 06:15:27;;;;;;;4.20;2.00;;;;;;;21.80;54.82;99704.97;4955099;29;20055;-84
2021/07/17 06:17:54;;;;;;;4.20;2.35;;;;;;;21.95;53.97;99711.31;4955817;29;20078;-83
2021/07/17 06:20:22;;;;;;;2.03;1.38;;;;;;;21.98;54.04;99708.31;4955503;29;20055;-84
2021/07/17 06:22:49;;;;;;;5.13;1.50;;;;;;;21.88;53.71;99718.22;4957953;29;20130;-85
2021/07/17 06:25:16;;;;;;;1.90;1.80;;;;;;;22.09;53.82;99709.00;4964070;29;20086;-83
2021/07/17 06:27:43;;;;;;;1.40;1.30;;;;;;;22.19;53.84;99710.53;4960070;28;20520;-80
2021/07/17 06:30:10;;;;;;;2.13;1.35;;;;;;;22.07;53.91;99711.00;4939143;28;20129;-82
2021/07/17 06:32:37;;;;;;;1.60;1.40;;;;;;;22.00;53.96;99710.81;4954310;28;20050;-80
2021/07/17 06:35:05;;;;;;;2.95;1.83;;;;;;;21.96;54.03;99712.13;4954169;28;20489;-82
2021/07/17 06:37:32;;;;;;;4.05;1.67;;;;;;;22.28;52.88;99706.06;4950940;28;20050;-82
2021/07/17 06:39:59;;;;;;;6.95;1.83;;;;;;;22.20;53.52;99706.03;4953288;28;20162;-79
2021/07/17 06:42:26;;;;;;;8.38;1.90;;;;;;;22.14;53.48;99712.84;4952075;28;20106;-80
2021/07/17 06:44:53;;;;;;;3.90;1.80;;;;;;;22.15;53.58;99719.81;4950467;28;20544;-81
2021/07/17 06:47:21;;;;;;;2.80;1.52;;;;;;;22.15;53.63;99717.16;4948824;28;20047;-79
2021/07/17 06:49:48;;;;;;;7.50;1.70;;;;;;;22.16;53.42;99715.34;4955419;28;20102;-80
2021/07/17 06:52:15;;;;;;;3.60;1.30;;;;;;;22.23;53.31;99705.72;4954866;28;20035;-79
2021/07/17 06:54:42;;;;;;;2.10;1.58;;;;;;;22.06;53.26;99709.34;4952535;28;20521;-79
2021/07/17 06:57:08;;;;;;;3.67;2.25;;;;;;;22.13;53.29;99705.06;4951860;28;20490;-79
2021/07/17 06:59:35;;;;;;;2.05;1.85;;;;;;;22.06;53.49;99710.16;4952875;28;20043;-77
2021/07/17 07:02:02;;;;;;;4.00;1.70;;;;;;;22.26;53.45;99710.69;4952694;28;20446;-76
2021/07/17 07:04:30;;;;;;;3.63;1.80;;;;;;;22.04;53.72;99695.38;4944529;28;20142;-79
2021/07/17 07:06:57;;;;;;;3.70;1.90;;;;;;;22.23;53.50;99697.78;4947123;28;20047;-78
2021/07/17 07:09:24;;;;;;;2.00;1.75;;;;;;;22.12;54.13;99698.09;4947280;28;20075;-78
2021/07/17 07:11:51;;;;;;;5.15;1.77;;;;;;;22.25;53.72;99703.72;4944373;28;20051;-77
2021/07/17 07:14:18;;;;;;;2.78;1.80;;;;;;;22.18;53.51;99695.59;4947841;28;20072;-79
2021/07/17 07:16:45;;;;;;;2.55;1.73;;;;;;;22.33;54.53;99701.09;4948414;28;20042;-86
2021/07/17 07:19:12;;;;;;;3.63;2.28;;;;;;;22.42;53.57;99708.03;4945813;28;20048;-85
2021/07/17 07:21:39;;;;;;;5.65;2.42;;;;;;;22.54;53.72;99707.75;4948885;28;20074;-80
2021/07/17 07:24:06;;;;;;;5.20;1.75;;;;;;;22.46;53.32;99706.72;4949734;28;20520;-84
2021/07/17 07:26:33;;;;;;;2.95;2.40;;;;;;;22.48;53.87;99701.28;4950840;28;20564;-81
2021/07/17 07:29:00;;;;;;;3.17;2.33;;;;;;;22.56;54.41;99708.38;4948913;28;20078;-77
2021/07/17 07:31:27;;;;;;;5.82;2.30;;;;;;;22.65;53.49;99702.09;4948547;28;20050;-82
2021/07/17 07:33:55;;;;;;;4.47;2.60;;;;;;;22.74;53.39;99703.72;4948751;28;20047;-80
2021/07/17 07:36:21;;;;;;;4.32;2.30;;;;;;;22.71;53.29;99707.56;4933609;28;20047;-79
2021/07/17 07:38:48;;;;;;;5.57;1.95;;;;;;;22.78;52.56;99704.22;4948269;28;20213;-80
2021/07/17 07:41:15;;;;;;;3.95;1.83;;;;;;;22.83;52.45;99694.75;4949355;28;20043;-80
2021/07/17 07:43:45;;;;;;;4.80;2.10;;;;;;;22.96;52.40;99705.72;4949997;28;20163;-82
2021/07/17 07:46:14;;;;;;;7.03;2.90;;;;;;;23.08;51.81;99694.72;4949538;28;20040;-81
2021/07/17 07:48:42;;;;;;;4.13;1.90;;;;;;;23.18;51.17;99695.38;4948678;28;20051;-82
2021/07/17 07:51:12;;;;;;;4.72;1.95;;;;;;;23.35;51.40;99701.44;4948643;28;20078;-82
2021/07/17 07:53:39;;;;;;;3.75;1.83;;;;;;;23.31;50.65;99700.13;4950058;28;20070;-81
2021/07/17 07:56:06;;;;;;;4.68;1.83;;;;;;;23.47;50.55;99700.06;4952789;28;20050;-80
2021/07/17 07:58:33;;;;;;;3.95;1.90;;;;;;;23.44;50.70;99700.41;4954717;28;20039;-80
2021/07/17 08:01:00;;;;;;;2.10;2.00;;;;;;;23.47;50.06;99705.38;4949252;28;20454;-78
2021/07/17 08:03:27;;;;;;;3.20;1.83;;;;;;;23.49;48.95;99693.59;4949060;28;20490;-80
2021/07/17 08:05:54;;;;;;;7.75;2.10;;;;;;;23.62;49.22;99692.19;4951152;28;20055;-80
2021/07/17 08:08:21;;;;;;;5.30;2.13;;;;;;;23.58;49.42;99693.53;4953376;28;20051;-80
2021/07/17 08:10:48;;;;;;;1.70;1.55;;;;;;;23.64;49.54;99684.88;4950681;28;20067;-79
2021/07/17 08:13:15;;;;;;;2.72;2.13;;;;;;;23.63;49.09;99689.38;4953418;28;20036;-78
2021/07/17 08:15:42;;;;;;;2.95;1.80;;;;;;;23.51;49.00;99682.75;4953185;28;20410;-78
2021/07/17 08:18:11;;;;;;;5.40;2.13;;;;;;;23.51;49.44;99690.75;4952802;28;20484;-80
2021/07/17 08:20:40;;;;;;;4.28;2.20;;;;;;;23.59;49.95;99696.00;4949887;28;20039;-78
2021/07/17 08:23:07;;;;;;;2.65;1.92;;;;;;;23.60;49.80;99696.88;4939510;29;20144;-78
2021/07/17 08:25:35;;;;;;;2.40;2.00;;;;;;;23.58;48.85;99704.16;4954529;29;20039;-76
2021/07/17 08:28:02;;;;;;;1.92;1.70;;;;;;;23.65;49.16;99714.00;4937438;29;20383;-75
2021/07/17 08:30:32;;;;;;;4.68;2.90;;;;;;;23.54;49.35;99709.00;4952101;29;20110;-74
2021/07/17 08:33:00;;;;;;;4.53;1.75;;;;;;;23.63;49.57;99700.00;4947594;29;20071;-75
2021/07/17 08:35:27;;;;;;;3.17;1.70;;;;;;;23.73;49.42;99705.13;4952403;29;20043;-76
2021/07/17 08:37:56;;;;;;;5.38;1.85;;;;;;;24.01;49.23;99708.09;4952726;29;20126;-76
2021/07/17 08:40:24;;;;;;;3.40;2.17;;;;;;;23.72;49.74;99709.63;4952525;29;20074;-77
2021/07/17 08:42:51;;;;;;;5.15;1.70;;;;;;;23.85;49.00;99705.56;4953375;29;20074;-76
2021/07/17 08:45:20;;;;;;;4.28;1.73;;;;;;;23.86;49.33;99707.19;4956558;29;20387;-76
2021/07/17 08:47:47;;;;;;;2.05;1.77;;;;;;;23.85;49.58;99703.72;4955901;29;20074;-75
2021/07/17 08:50:16;;;;;;;2.03;1.92;;;;;;;23.92;49.02;99710.00;4956384;29;20100;-74
2021/07/17 08:52:43;;;;;;;4.07;2.03;;;;;;;23.63;49.17;99693.88;4955768;29;20094;-75
2021/07/17 08:55:11;;;;;;;2.65;2.45;;;;;;;23.79;49.06;99694.59;4956418;29;20066;-76
2021/07/17 08:57:41;;;;;;;3.78;1.58;;;;;;;23.79;49.82;99699.09;4955914;29;20049;-74
2021/07/17 09:00:12;;;;;;;2.90;2.28;;;;;;;23.98;49.44;99698.66;4956273;29;20129;-74
2021/07/17 09:03:00;;;;;;;4.20;2.15;;;;;;;23.86;49.73;99684.06;4956106;29;20106;-75
2021/07/17 09:05:32;;;;;;;4.80;2.22;;;;;;;23.77;49.43;99685.16;4955025;28;20098;-75
2021/07/17 09:08:00;;;;;;;3.83;1.50;;;;;;;23.68;49.72;99675.53;4956338;29;20081;-76
2021/07/17 09:10:38;;;;;;;2.55;1.63;;;;;;;23.68;49.18;99679.03;4956116;29;20082;-74
2021/07/17 09:13:17;;;;;;;4.20;1.55;;;;;;;23.66;49.52;99666.94;4956017;28;20118;-75
2021/07/17 09:15:50;;;;;;;4.25;2.42;;;;;;;23.63;48.73;99651.28;4955809;29;20402;-75
2021/07/17 09:18:55;;;;;;;2.42;1.85;;;;;;;23.61;49.46;99656.78;4956170;29;20219;-76
2021/07/17 09:21:29;;;;;;;;;;;;;;;23.74;48.95;99653.56;4859945;29;20523;-77
2021/07/17 09:24:07;;;;;;;3.15;1.70;;;;;;;23.66;49.09;99640.31;4859461;29;19924;-76
2021/07/17 09:26:37;;;;;;;4.80;1.80;;;;;;;23.66;49.07;99649.13;4917947;29;20047;-76
2021/07/17 09:29:09;;;;;;;2.72;1.70;;;;;;;23.70;49.53;99653.09;4955755;29;20043;-75
2021/07/17 09:31:38;;;;;;;2.90;1.45;;;;;;;23.86;49.42;99660.13;4938295;29;20071;-75
2021/07/17 09:34:13;;;;;;;2.17;1.55;;;;;;;23.84;48.88;99670.13;4955697;29;20057;-76
2021/07/17 09:37:09;;;;;;;2.38;1.58;;;;;;;23.86;49.29;99680.59;4955583;28;20055;-76
2021/07/17 09:39:40;;;;;;;1.73;1.63;;;;;;;23.87;49.30;99688.41;4955585;29;20047;-75
2021/07/17 09:42:11;;;;;;;1.65;1.55;;;;;;;23.85;48.88;99693.06;4955151;29;20039;-75
2021/07/17 09:44:39;;;;;;;3.58;1.70;;;;;;;23.84;49.32;99690.59;4955413;29;20047;-75
2021/07/17 09:47:18;;;;;;;1.88;1.70;;;;;;;23.98;48.98;99690.69;4955086;29;20565;-75
2021/07/17 09:49:45;;;;;;;2.10;1.80;;;;;;;24.08;48.91;99692.28;4955756;29;20051;-76
2021/07/17 09:52:21;;;;;;;3.40;1.73;;;;;;;23.86;49.45;99673.44;4954669;29;20490;-75
2021/07/17 09:55:14;;;;;;;2.88;1.70;;;;;;;24.07;49.27;99666.63;4955473;29;20055;-77
2021/07/17 09:57:42;;;;;;;4.50;2.03;;;;;;;24.24;48.88;99655.69;4955090;29;20157;-73
2021/07/17 10:00:10;;;;;;;1.50;1.40;;;;;;;24.08;48.70;99649.69;4955386;29;20039;-76
2021/07/17 10:02:55;;;;;;;2.20;2.00;;;;;;;24.09;49.18;99630.84;4954689;29;20573;-77
2021/07/17 10:05:40;;;;;;;4.18;1.63;;;;;;;24.21;48.63;99624.09;4955354;29;20442;-76
2021/07/17 10:08:14;;;;;;;1.95;1.85;;;;;;;24.21;48.84;99623.25;4955165;29;20502;-77
2021/07/17 10:10:44;;;;;;;5.50;1.92;;;;;;;24.38;48.87;99624.78;4955483;29;20043;-77
2021/07/17 10:13:11;;;;;;;4.97;2.25;;;;;;;24.41;48.56;99616.47;4937315;29;20083;-76
2021/07/17 10:15:38;;;;;;;2.00;1.38;;;;;;;24.40;47.73;99613.97;4954664;28;20043;-76
2021/07/17 10:18:24;;;;;;;4.15;1.48;;;;;;;24.41;48.00;99608.47;4954995;29;20043;-76
2021/07/17 10:20:53;;;;;;;3.33;1.85;;;;;;;24.40;47.34;99612.16;4955029;29;20047;-77
2021/07/17 10:23:20;;;;;;;2.22;1.52;;;;;;;24.47;47.54;99613.06;4955742;29;20138;-77
2021/07/17 10:25:47;;;;;;;3.15;1.98;;;;;;;24.60;47.22;99606.28;4937804;29;20049;-78
2021/07/17 10:28:14;;;;;;;1.90;1.45;;;;;;;24.64;46.99;99607.56;4955021;29;20055;-78
2021/07/17 10:30:41;;;;;;;2.08;1.88;;;;;;;24.70;46.65;99605.00;4954730;29;20045;-78
2021/07/17 10:33:09;;;;;;;3.92;1.65;;;;;;;24.87;46.38;99618.97;4954961;29;20035;-78
2021/07/17 10:35:38;;;;;;;9.18;2.00;;;;;;;24.82;46.99;99608.88;4954481;29;20047;-76
2021/07/17 10:38:06;;;;;;;3.03;1.67;;;;;;;24.94;46.01;99619.06;4953773;29;20483;-77
2021/07/17 10:40:34;;;;;;;2.05;1.63;;;;;;;25.03;47.00;99629.44;4954491;29;20364;-78
2021/07/17 10:43:03;;;;;;;2.33;1.40;;;;;;;25.19;45.92;99628.44;4954240;29;20545;-76
2021/07/17 10:45:44;;;;;;;4.03;1.98;;;;;;;25.22;46.03;99633.41;4954709;29;20043;-76
2021/07/17 10:48:32;;;;;;;10.20;1.65;;;;;;;25.46;44.71;99629.63;4954335;29;20077;-77
2021/07/17 10:51:22;;;;;;;2.33;1.48;;;;;;;25.46;44.77;99634.09;4937386;29;20116;-77
2021/07/17 10:53:54;;;;;;;1.67;1.33;;;;;;;25.51;46.01;99632.50;4954353;29;20098;-77
2021/07/17 10:56:27;;;;;;;1.80;1.52;;;;;;;25.56;45.74;99614.09;4954448;29;20050;-77
2021/07/17 10:58:55;;;;;;;5.00;1.40;;;;;;;25.46;44.61;99615.41;4954548;29;20058;-78
2021/07/17 11:01:22;;;;;;;1.75;1.52;;;;;;;25.41;45.43;99616.00;4954250;29;20039;-77
2021/07/17 11:03:50;;;;;;;4.50;1.75;;;;;;;25.46;44.89;99605.59;4953841;29;20047;-76
2021/07/17 11:06:28;;;;;;;1.30;1.20;;;;;;;25.65;44.46;99605.97;4951630;28;20075;-75
2021/07/17 11:08:56;;;;;;;2.42;1.40;;;;;;;25.60;44.46;99593.19;4952872;28;20455;-77
2021/07/17 11:11:35;;;;;;;3.47;1.40;;;;;;;25.44;44.63;99593.44;4957142;28;20500;-83
2021/07/17 11:14:05;;;;;;;2.15;1.67;;;;;;;25.43;44.33;99595.28;4954310;28;20094;-79
2021/07/17 11:16:40;;;;;;;6.05;2.42;;;;;;;25.55;43.64;99590.28;4952235;28;20095;-76
2021/07/17 11:19:13;;;;;;;2.78;1.55;;;;;;;25.49;44.14;99593.72;4952862;28;20090;-75
2021/07/17 11:21:40;;;;;;;3.65;1.25;;;;;;;25.63;44.23;99581.34;4954126;29;20494;-78
2021/07/17 11:24:09;;;;;;;6.88;1.42;;;;;;;25.70;44.77;99583.03;4953756;29;20549;-77
2021/07/17 11:26:37;;;;;;;1.67;1.55;;;;;;;25.73;44.42;99573.84;4954161;29;20478;-77
2021/07/17 11:29:08;;;;;;;1.98;1.80;;;;;;;25.67;44.79;99578.06;4956833;28;20039;-76
2021/07/17 11:31:40;;;;;;;1.25;1.13;;;;;;;25.77;44.65;99564.44;4957349;29;20566;-76
2021/07/17 11:34:22;;;;;;;2.60;2.17;;;;;;;25.58;44.99;99569.38;4957695;29;20047;-78
2021/07/17 11:36:51;;;;;;;1.55;1.40;;;;;;;25.67;44.42;99567.41;4957899;29;20039;-78
2021/07/17 11:39:22;;;;;;;1.30;1.20;;;;;;;25.97;44.10;99568.13;4957818;29;20090;-77
2021/07/17 11:41:49;;;;;;;1.40;1.30;;;;;;;25.86;43.22;99557.97;4957657;29;20163;-75